Killbuck, Ohio
Current Conditions -  °F | °C
As of 3:56 PM on Tuesday 21 Oct 2014 (Local Time) from KBJJ Reporting Station
Overcast Overcast  
Wind Chill: 42°   Ceiling: 2200
Heat Index: 49°   Visibility: 10mi
Dew Point: 43°   Wind: 18mph
Humidity: 80%   Direction: 330°NNW
Pressure: 30"   Gusts: NA
Location:  40.5°N, 81.98°W
Report Text: KBJJ 211956Z AUTO 33016KT 10SM SCT015 BKN022 OVC033 09/06 A3000 RMK AO2 RAB46E49 SLP160 P0000 T00940061 TSNO
Loading
Personal Weather Stations






























Interactive Weather Map
Tropical Storm Tracking
New forecast layout! Learn more

10-Day Weather Forecast

Advertisements
Track Severe Weather on mobile